Airfield :
LOGIN :

Register | Disclaimer

   EN    FR    IT 

 










Legend :    VFR   Marginal VFR   IFR   Intensive IFR   Very Intensive IFR
Visi :
Ceiling :
>= 8 km
>= 3000ft
5 to 8 km
1000 to 3000 ft
1500m to 5 km
500 to 1000 ft
800 to 1500m
200 to 500 ft
< 800m
< 200 ft
Symbols :   Thunderstorms  Fog  Heavy snow  Heavy precipitations  Wind > 20 kt
SIGMETs :     Misc.  Thunderstorms  Icing  Turbulence  Mountain Waves  Volcanic Ashes






- Airport Elevation : 22 ft
- IATA code : SKG


LGTS - Thessaloniki

CURRENT METAR :
  • 220250Z 35010G20KT 9999 SCT025 01/M07 Q1021 NOSIG

EXPIRED METARs :
  • 220220Z 36014G24KT 9999 SCT025 01/M07 Q1021 NOSIG
  • 220150Z 34015G25KT 9999 SCT025 02/M07 Q1021 NOSIG
  • 220120Z 35015G29KT 9999 SCT025 02/M07 Q1020 NOSIG
  • 220050Z 35015G29KT 9999 SCT025 02/M06 Q1020 NOSIG
  • 220020Z 35012G22KT 9999 SCT025 03/M06 Q1020 NOSIG
  • 212350Z 35013G23KT 9999 SCT025 03/M07 Q1020 NOSIG

TAF TAF LGTS
Valid from the 22 at 00:00 until the 23 at 00:00 UTC


212300Z 2200/2224 35015G25KT 9999 SCT010 SCT020
PROB30
TEMPO 2200/2204 34025G35KT 3000 SNRA SCT005 BKN020
BECMG 2204/2206 FEW030
BECMG 2216/2218 FEW012 SCT025
PROB30
TEMPO 2218/2224 35025G35KT 3000 SN BKN004 OVC018



MET'MAP, your aeronautical weather chart ! - Copyright ORBIFLY December 2007 - Disclaimer

ORBIFLY MET'MAP TEAM :

Programming & Development : Alexandra Zaïnal
Concept & original design : Baudouin d'Aumeries
Assistance for programming : Marc-Olivier Méhu
Technical & hardware support : Manuel Goepfert

Contact : metmap@orbifly.com




SOURCES & CREDITS :

   NOAA